Time;durP1;ratioP1;P1;durP2;ratioP2;P2;SDS_P1;SDS_P2;PMS_P1;PMS_P2;Temp;Humidity;BMP_temperature;BMP_pressure;BME280_temperature;BME280_humidity;BME280_pressure;Samples;Min_cycle;Max_cycle;Signal;HPM_P1;HPM_P2
2021/06/26 00:00:52;;;;;;;25.15;19.08;;;15.80;99.90;;;;;;5071606;28;20029;-72
2021/06/26 00:03:20;;;;;;;28.15;18.98;;;15.80;99.90;;;;;;5071092;28;20028;-72
2021/06/26 00:05:46;;;;;;;34.72;21.27;;;15.80;99.90;;;;;;5070722;28;20476;-72
2021/06/26 00:08:12;;;;;;;27.92;19.13;;;15.80;99.90;;;;;;5071249;28;20044;-73
2021/06/26 00:10:38;;;;;;;29.55;19.08;;;15.70;99.90;;;;;;5071647;28;20566;-72
2021/06/26 00:13:03;;;;;;;30.67;20.15;;;15.70;99.90;;;;;;5070484;28;20039;-72
2021/06/26 00:15:29;;;;;;;32.47;19.40;;;15.70;99.90;;;;;;5071405;28;20385;-73
2021/06/26 00:17:54;;;;;;;35.47;19.90;;;15.70;99.90;;;;;;5071438;28;20032;-73
2021/06/26 00:20:20;;;;;;;28.00;20.17;;;15.60;99.90;;;;;;5075422;28;20028;-75
2021/06/26 00:22:46;;;;;;;28.08;19.73;;;15.60;99.90;;;;;;5076234;28;20012;-73
2021/06/26 00:25:12;;;;;;;39.05;22.48;;;15.60;99.90;;;;;;5087778;28;20016;-73
2021/06/26 00:27:40;;;;;;;26.83;19.50;;;15.60;99.90;;;;;;5077719;28;20107;-72
2021/06/26 00:30:06;;;;;;;25.55;19.25;;;15.60;99.90;;;;;;5083584;28;20024;-72
2021/06/26 00:32:32;;;;;;;27.83;18.58;;;15.60;99.90;;;;;;5072558;28;20025;-72
2021/06/26 00:34:57;;;;;;;32.45;19.52;;;15.50;99.90;;;;;;5070130;28;20044;-72
2021/06/26 00:37:23;;;;;;;31.30;18.98;;;15.50;99.90;;;;;;5072994;28;20037;-72
2021/06/26 00:39:49;;;;;;;31.23;19.90;;;15.50;99.90;;;;;;5082649;28;20065;-71
2021/06/26 00:42:14;;;;;;;25.55;19.45;;;15.50;99.90;;;;;;5071552;28;20024;-72
2021/06/26 00:44:40;;;;;;;27.05;19.95;;;15.50;99.90;;;;;;5074843;28;20077;-72
2021/06/26 00:47:15;;;;;;;27.13;19.77;;;15.50;99.90;;;;;;5055950;28;20035;-72
2021/06/26 00:49:41;;;;;;;31.40;21.90;;;15.40;99.90;;;;;;5080008;28;20028;-73
2021/06/26 00:52:07;;;;;;;33.22;22.00;;;15.40;99.90;;;;;;5094993;28;20349;-73
2021/06/26 00:54:33;;;;;;;30.80;22.38;;;15.50;99.90;;;;;;5091257;28;20060;-73
2021/06/26 00:57:02;;;;;;;33.45;23.98;;;15.50;99.90;;;;;;5074292;28;20036;-72
2021/06/26 00:59:28;;;;;;;32.60;24.40;;;15.40;99.90;;;;;;5074607;28;20029;-73
2021/06/26 01:01:54;;;;;;;31.55;23.27;;;15.40;99.90;;;;;;5073826;28;20031;-71
2021/06/26 01:04:20;;;;;;;34.90;23.70;;;15.50;99.90;;;;;;5074014;28;20017;-71
2021/06/26 01:06:45;;;;;;;36.38;24.63;;;15.50;99.90;;;;;;5074477;28;20036;-71
2021/06/26 01:09:14;;;;;;;35.80;24.30;;;15.50;99.90;;;;;;5073500;28;20465;-74
2021/06/26 01:11:39;;;;;;;33.63;25.00;;;15.50;99.90;;;;;;5074278;28;20104;-73
2021/06/26 01:14:05;;;;;;;31.73;23.15;;;15.50;99.90;;;;;;5074232;28;20127;-73
2021/06/26 01:16:31;;;;;;;33.30;25.52;;;15.50;99.90;;;;;;5073223;28;20105;-73
2021/06/26 01:18:56;;;;;;;34.47;25.38;;;15.40;99.90;;;;;;5082289;28;20091;-73
2021/06/26 01:21:22;;;;;;;33.15;24.27;;;15.40;99.90;;;;;;5094346;28;20028;-73
2021/06/26 01:23:51;;;;;;;38.38;25.58;;;15.50;99.90;;;;;;5093634;28;20085;-73
2021/06/26 01:26:17;;;;;;;37.20;24.13;;;15.40;99.90;;;;;;5094097;28;20093;-73
2021/06/26 01:28:42;;;;;;;32.75;24.30;;;15.40;99.90;;;;;;5091022;28;20456;-73
2021/06/26 01:31:08;;;;;;;32.63;23.52;;;15.40;99.90;;;;;;5073034;28;20045;-73
2021/06/26 01:33:34;;;;;;;32.60;24.60;;;15.50;99.90;;;;;;5073709;28;20413;-72
2021/06/26 01:36:00;;;;;;;37.08;25.42;;;15.50;99.90;;;;;;5072657;28;20053;-73
2021/06/26 01:38:26;;;;;;;33.72;25.15;;;15.60;99.90;;;;;;5073757;28;20024;-72
2021/06/26 01:40:52;;;;;;;31.88;24.38;;;15.60;99.90;;;;;;5073650;28;20025;-73
2021/06/26 01:43:17;;;;;;;32.30;23.92;;;15.60;99.90;;;;;;5072944;28;20075;-72
2021/06/26 01:45:43;;;;;;;35.10;24.98;;;15.60;99.90;;;;;;5073551;28;20409;-73
2021/06/26 01:48:09;;;;;;;35.42;25.05;;;15.60;99.90;;;;;;5073389;28;20039;-73
2021/06/26 01:50:34;;;;;;;33.50;25.17;;;15.70;99.90;;;;;;5073017;28;20107;-73
2021/06/26 01:53:00;;;;;;;38.15;25.75;;;15.70;99.90;;;;;;5073166;28;20070;-72
2021/06/26 01:55:27;;;;;;;33.95;24.50;;;15.70;99.90;;;;;;5073340;28;20127;-72
2021/06/26 01:57:53;;;;;;;34.08;25.42;;;15.70;99.90;;;;;;5072752;28;20028;-73
2021/06/26 02:00:21;;;;;;;32.05;23.48;;;15.70;99.90;;;;;;5073101;28;20020;-72
2021/06/26 02:02:47;;;;;;;32.65;24.05;;;15.70;99.90;;;;;;5073003;28;20464;-72
2021/06/26 02:05:15;;;;;;;34.85;24.50;;;15.70;99.90;;;;;;5072559;28;20027;-73
2021/06/26 02:07:40;;;;;;;36.72;26.52;;;15.70;99.90;;;;;;5073069;28;20027;-72
2021/06/26 02:10:07;;;;;;;33.72;23.85;;;15.80;99.90;;;;;;5072880;28;20013;-73
2021/06/26 02:12:35;;;;;;;35.90;24.33;;;15.80;99.90;;;;;;5071828;28;20039;-72
2021/06/26 02:15:01;;;;;;;36.83;26.40;;;15.80;99.90;;;;;;5072203;28;20492;-73
2021/06/26 02:17:27;;;;;;;34.63;25.30;;;15.80;99.90;;;;;;5072839;28;20032;-73
2021/06/26 02:19:52;;;;;;;33.45;25.17;;;15.80;99.90;;;;;;5071726;28;20476;-73
2021/06/26 02:22:18;;;;;;;32.97;25.00;;;15.80;99.90;;;;;;5072422;28;20094;-73
2021/06/26 02:24:45;;;;;;;34.35;25.00;;;15.80;99.90;;;;;;5072671;28;20032;-73
2021/06/26 02:27:10;;;;;;;35.47;25.50;;;15.90;99.90;;;;;;5071814;28;20020;-72
2021/06/26 02:29:39;;;;;;;38.20;25.55;;;15.90;99.90;;;;;;5083308;28;20088;-72
2021/06/26 02:32:05;;;;;;;35.65;25.10;;;15.90;99.90;;;;;;5075454;28;20032;-72
2021/06/26 02:34:31;;;;;;;36.20;26.73;;;15.90;99.90;;;;;;5071965;28;20104;-72
2021/06/26 02:36:57;;;;;;;34.22;25.95;;;15.80;99.90;;;;;;5072445;28;20138;-73
2021/06/26 02:39:22;;;;;;;34.83;26.40;;;15.90;99.90;;;;;;5071933;28;20073;-73
2021/06/26 02:41:48;;;;;;;31.67;25.00;;;15.90;99.90;;;;;;5072522;28;20021;-73
2021/06/26 02:44:14;;;;;;;36.08;26.00;;;15.90;99.90;;;;;;5072501;28;20021;-73
2021/06/26 02:46:40;;;;;;;38.70;27.58;;;15.90;99.90;;;;;;5071839;28;20054;-73
2021/06/26 02:49:05;;;;;;;36.78;27.55;;;15.90;99.90;;;;;;5072042;28;20044;-74
2021/06/26 02:51:31;;;;;;;37.03;26.83;;;15.90;99.90;;;;;;5072668;28;20028;-74
2021/06/26 02:53:56;;;;;;;37.05;27.35;;;15.90;99.90;;;;;;5071613;28;20040;-74
2021/06/26 02:56:22;;;;;;;45.60;30.15;;;15.90;99.90;;;;;;5072003;28;20036;-71
2021/06/26 02:58:47;;;;;;;43.65;30.45;;;15.90;99.90;;;;;;5072218;28;20372;-71
2021/06/26 03:01:13;;;;;;;48.65;32.00;;;15.90;99.90;;;;;;5071254;28;20029;-73
2021/06/26 03:03:39;;;;;;;45.35;31.38;;;15.90;99.90;;;;;;5072094;28;20024;-73
2021/06/26 03:06:05;;;;;;;44.22;29.23;;;15.90;99.90;;;;;;5073577;28;20025;-73
2021/06/26 03:08:30;;;;;;;45.88;31.77;;;16.00;99.90;;;;;;5073645;28;20031;-73
2021/06/26 03:10:56;;;;;;;46.30;30.67;;;15.90;99.90;;;;;;5076223;28;20066;-73
2021/06/26 03:13:22;;;;;;;45.88;30.73;;;15.90;99.90;;;;;;5073719;28;20451;-73
2021/06/26 03:15:47;;;;;;;44.30;30.33;;;16.00;99.90;;;;;;5074248;28;20054;-74
2021/06/26 03:18:16;;;;;;;43.53;29.33;;;16.00;99.90;;;;;;5075010;28;20016;-73
2021/06/26 03:20:41;;;;;;;51.78;31.38;;;16.00;99.90;;;;;;5073964;28;20066;-73
2021/06/26 03:23:08;;;;;;;50.05;30.65;;;16.00;99.90;;;;;;5075003;28;20036;-73
2021/06/26 03:25:33;;;;;;;48.42;31.75;;;16.00;99.90;;;;;;5073790;28;20025;-73
2021/06/26 03:27:59;;;;;;;47.78;31.33;;;16.00;99.90;;;;;;5075701;28;20073;-73
2021/06/26 03:30:25;;;;;;;50.70;32.63;;;16.00;99.90;;;;;;5085177;28;20062;-73
2021/06/26 03:32:50;;;;;;;49.97;32.05;;;16.00;99.90;;;;;;5071216;28;20036;-73
2021/06/26 03:35:16;;;;;;;50.63;32.40;;;16.00;99.90;;;;;;5070820;28;20040;-73
2021/06/26 03:37:42;;;;;;;47.60;31.83;;;16.00;99.90;;;;;;5070787;28;20032;-72
2021/06/26 03:40:08;;;;;;;53.17;32.88;;;16.00;99.90;;;;;;5070973;28;20098;-75
2021/06/26 03:42:34;;;;;;;48.67;33.08;;;16.00;99.90;;;;;;5071012;28;20047;-73
2021/06/26 03:45:00;;;;;;;49.65;33.50;;;16.00;99.90;;;;;;5071394;28;20025;-73
2021/06/26 03:47:26;;;;;;;39.75;28.45;;;16.00;99.90;;;;;;5071640;28;20021;-73
2021/06/26 03:49:52;;;;;;;50.85;33.25;;;16.00;99.90;;;;;;5080032;28;20032;-73
2021/06/26 03:52:17;;;;;;;48.20;32.55;;;16.10;99.90;;;;;;5091048;28;20031;-73
2021/06/26 03:54:43;;;;;;;49.72;32.35;;;16.10;99.90;;;;;;5091412;28;20404;-74
2021/06/26 03:57:09;;;;;;;49.03;34.00;;;16.10;99.90;;;;;;5090639;28;20103;-73
2021/06/26 03:59:34;;;;;;;49.10;33.65;;;16.00;99.90;;;;;;5091600;28;20059;-73
2021/06/26 04:02:00;;;;;;;58.88;36.83;;;16.00;99.90;;;;;;5091335;28;20107;-73
2021/06/26 04:04:26;;;;;;;55.78;36.88;;;16.00;99.90;;;;;;5090568;28;20380;-72
2021/06/26 04:06:51;;;;;;;59.58;37.47;;;16.00;99.90;;;;;;5091706;28;20078;-73
2021/06/26 04:09:17;;;;;;;56.67;35.60;;;16.00;99.90;;;;;;5091178;28;20404;-72
2021/06/26 04:11:43;;;;;;;59.97;37.40;;;16.00;99.90;;;;;;5090666;28;20404;-71
2021/06/26 04:14:08;;;;;;;56.38;35.83;;;16.00;99.90;;;;;;5078169;28;20032;-74
2021/06/26 04:16:34;;;;;;;63.05;39.20;;;16.10;99.90;;;;;;5071200;28;20036;-73
2021/06/26 04:19:03;;;;;;;63.78;38.80;;;16.10;99.90;;;;;;5073457;28;20054;-73
2021/06/26 04:21:28;;;;;;;55.97;36.78;;;16.10;99.90;;;;;;5075040;28;20384;-72
2021/06/26 04:23:54;;;;;;;57.83;36.78;;;16.20;99.90;;;;;;5074786;28;20020;-72
2021/06/26 04:26:20;;;;;;;56.47;34.97;;;16.40;99.90;;;;;;5073964;28;20052;-73
2021/06/26 04:28:45;;;;;;;53.33;35.38;;;16.20;99.90;;;;;;5078831;28;20020;-74
2021/06/26 04:31:11;;;;;;;55.85;34.85;;;16.30;99.90;;;;;;5085400;28;20043;-74
2021/06/26 04:33:36;;;;;;;55.08;36.22;;;16.30;99.90;;;;;;5074211;28;20380;-74
2021/06/26 04:36:02;;;;;;;46.95;33.20;;;16.30;99.90;;;;;;5074288;28;20052;-73
2021/06/26 04:38:28;;;;;;;59.40;36.53;;;16.40;99.90;;;;;;5074736;28;20029;-73
2021/06/26 04:40:53;;;;;;;49.90;35.08;;;16.40;99.90;;;;;;5073939;28;20013;-73
2021/06/26 04:43:19;;;;;;;55.45;37.38;;;16.40;99.90;;;;;;5074517;28;20029;-73
2021/06/26 04:45:46;;;;;;;53.13;34.88;;;16.50;99.90;;;;;;5074359;28;20092;-74
2021/06/26 04:48:15;;;;;;;46.45;33.50;;;16.40;99.90;;;;;;5074420;28;20047;-74
2021/06/26 04:50:41;;;;;;;52.42;35.50;;;16.50;99.90;;;;;;5074570;28;20032;-73
2021/06/26 04:53:09;;;;;;;51.38;33.72;;;16.50;99.90;;;;;;5081747;28;20085;-74
2021/06/26 04:55:34;;;;;;;53.30;34.13;;;16.50;99.90;;;;;;5094736;28;20036;-73
2021/06/26 04:58:00;;;;;;;49.05;33.58;;;16.50;99.90;;;;;;5094643;28;20024;-74
2021/06/26 05:00:26;;;;;;;49.20;32.67;;;16.50;99.90;;;;;;5094143;28;20048;-74
2021/06/26 05:02:51;;;;;;;49.10;33.10;;;16.60;99.90;;;;;;5094436;28;20027;-73
2021/06/26 05:05:17;;;;;;;46.63;32.58;;;16.60;99.90;;;;;;5094273;28;20036;-72
2021/06/26 05:07:42;;;;;;;47.08;32.05;;;16.60;99.90;;;;;;5093659;28;20039;-73
2021/06/26 05:10:08;;;;;;;45.25;30.95;;;16.70;99.90;;;;;;5093975;28;20585;-72
2021/06/26 05:12:34;;;;;;;53.80;33.42;;;16.70;99.90;;;;;;5094270;28;20054;-72
2021/06/26 05:14:59;;;;;;;55.50;34.40;;;16.70;99.90;;;;;;5093316;28;20472;-72
2021/06/26 05:17:25;;;;;;;51.42;33.17;;;16.70;99.90;;;;;;5094306;28;20024;-73
2021/06/26 05:19:51;;;;;;;55.92;35.05;;;16.70;99.90;;;;;;5094114;28;20024;-74
2021/06/26 05:22:16;;;;;;;44.85;33.22;;;16.70;99.90;;;;;;5093254;28;20111;-72
2021/06/26 05:24:42;;;;;;;48.10;33.55;;;16.80;99.90;;;;;;5094275;28;20030;-72
2021/06/26 05:27:08;;;;;;;49.67;34.92;;;16.80;99.90;;;;;;5094120;28;20016;-73
2021/06/26 05:29:36;;;;;;;46.10;32.70;;;16.80;99.90;;;;;;5082622;28;20031;-72
2021/06/26 05:32:01;;;;;;;49.35;33.72;;;16.90;99.90;;;;;;5073462;28;20064;-72
2021/06/26 05:34:27;;;;;;;46.17;34.63;;;17.00;99.90;;;;;;5073568;28;20060;-74
2021/06/26 05:36:52;;;;;;;53.00;34.78;;;17.00;99.90;;;;;;5073169;28;20392;-74
2021/06/26 05:39:21;;;;;;;50.05;34.60;;;17.00;99.90;;;;;;5093523;28;20461;-74
2021/06/26 05:41:50;;;;;;;50.70;34.58;;;17.10;99.90;;;;;;5081207;28;20025;-74
2021/06/26 05:44:24;;;;;;;51.17;36.17;;;17.20;99.90;;;;;;5072692;28;20017;-73
2021/06/26 05:46:51;;;;;;;50.67;33.80;;;17.20;99.90;;;;;;5073865;28;20032;-73
2021/06/26 05:49:16;;;;;;;49.13;32.65;;;17.20;99.90;;;;;;5072457;28;20087;-73
2021/06/26 05:51:42;;;;;;;50.05;33.97;;;17.30;99.90;;;;;;5073411;28;20109;-74
2021/06/26 05:54:07;;;;;;;48.35;33.83;;;17.40;99.90;;;;;;5072974;28;20051;-73
2021/06/26 05:56:33;;;;;;;49.78;33.05;;;17.40;99.90;;;;;;5072832;28;20043;-74
2021/06/26 05:58:59;;;;;;;53.40;33.20;;;17.40;99.90;;;;;;5072906;28;20032;-74
2021/06/26 06:01:25;;;;;;;52.05;33.95;;;17.50;99.90;;;;;;5073213;28;20028;-74
2021/06/26 06:03:52;;;;;;;48.05;33.42;;;17.60;99.90;;;;;;5085916;28;20020;-73
2021/06/26 06:06:18;;;;;;;45.45;31.67;;;17.70;99.90;;;;;;5088054;28;20040;-73
2021/06/26 06:08:43;;;;;;;50.90;34.97;;;17.80;99.90;;;;;;5090578;28;20022;-74
2021/06/26 06:11:09;;;;;;;46.00;33.10;;;17.90;99.90;;;;;;5087931;28;20027;-74
2021/06/26 06:13:34;;;;;;;48.67;32.90;;;18.00;99.90;;;;;;5090291;28;20016;-73
2021/06/26 06:16:00;;;;;;;46.08;33.20;;;18.00;99.90;;;;;;5088828;28;20089;-74
2021/06/26 06:18:26;;;;;;;46.08;33.10;;;18.10;99.90;;;;;;5089796;28;20335;-74
2021/06/26 06:20:51;;;;;;;46.92;33.90;;;18.10;99.90;;;;;;5092436;28;20099;-74
2021/06/26 06:23:17;;;;;;;43.92;31.95;;;18.20;99.90;;;;;;5091979;28;20522;-73
2021/06/26 06:25:43;;;;;;;47.90;31.77;;;18.20;99.90;;;;;;5089109;28;20023;-74
2021/06/26 06:28:08;;;;;;;42.58;30.45;;;18.20;99.90;;;;;;5085459;28;20101;-73
2021/06/26 06:30:35;;;;;;;40.65;28.85;;;18.30;99.90;;;;;;5090133;28;20021;-73
2021/06/26 06:33:03;;;;;;;45.65;31.00;;;18.40;99.90;;;;;;5089106;28;20503;-73
2021/06/26 06:35:28;;;;;;;42.97;29.08;;;18.50;99.90;;;;;;5085595;28;20516;-72
2021/06/26 06:37:54;;;;;;;35.58;28.65;;;18.50;99.90;;;;;;5085768;28;20023;-74
2021/06/26 06:40:20;;;;;;;39.78;28.90;;;18.40;99.90;;;;;;5070215;28;20052;-72
2021/06/26 06:42:46;;;;;;;43.70;30.30;;;18.40;99.90;;;;;;5072085;28;20021;-72
2021/06/26 06:45:15;;;;;;;41.58;29.20;;;18.50;99.90;;;;;;5056376;28;20115;-73
2021/06/26 06:47:41;;;;;;;38.60;29.52;;;18.60;99.90;;;;;;5072020;28;20020;-73
2021/06/26 06:50:08;;;;;;;32.30;24.85;;;18.70;99.90;;;;;;5073847;28;20024;-74
2021/06/26 06:52:34;;;;;;;38.03;27.20;;;18.80;99.90;;;;;;5071265;28;20029;-74
2021/06/26 06:54:59;;;;;;;35.20;26.60;;;18.90;99.90;;;;;;5073737;28;20016;-74
2021/06/26 06:57:25;;;;;;;35.67;25.98;;;19.00;99.90;;;;;;5073000;28;20033;-74
2021/06/26 06:59:52;;;;;;;29.92;22.08;;;19.00;99.90;;;;;;5070798;28;20484;-75
2021/06/26 07:02:19;;;;;;;29.05;23.27;;;19.10;99.90;;;;;;5076665;28;20131;-74
2021/06/26 07:04:44;;;;;;;27.70;22.88;;;19.10;99.90;;;;;;5073049;28;20025;-74
2021/06/26 07:07:10;;;;;;;31.17;23.27;;;19.10;99.90;;;;;;5091274;28;20024;-75
2021/06/26 07:09:36;;;;;;;25.20;21.92;;;19.20;99.90;;;;;;5084755;28;20441;-74
2021/06/26 07:12:01;;;;;;;24.08;19.67;;;19.20;99.90;;;;;;5077807;28;20020;-75
2021/06/26 07:14:27;;;;;;;26.13;21.20;;;19.30;99.90;;;;;;5086273;28;20055;-74
2021/06/26 07:16:53;;;;;;;26.80;21.13;;;19.30;99.90;;;;;;5086060;28;20032;-75
2021/06/26 07:19:19;;;;;;;26.15;20.42;;;19.40;99.90;;;;;;5088198;28;20020;-75
2021/06/26 07:21:44;;;;;;;21.08;18.38;;;19.50;99.90;;;;;;5083817;28;20184;-75
2021/06/26 07:24:10;;;;;;;28.83;19.30;;;19.50;99.90;;;;;;5087825;28;20440;-75
2021/06/26 07:26:36;;;;;;;26.58;21.65;;;19.60;99.90;;;;;;5066284;28;20441;-75
2021/06/26 07:29:05;;;;;;;25.02;21.38;;;19.70;99.90;;;;;;5076691;28;20028;-76
2021/06/26 07:31:32;;;;;;;31.10;22.20;;;19.70;99.90;;;;;;5079661;28;20039;-75
2021/06/26 07:33:57;;;;;;;27.50;20.25;;;19.80;99.90;;;;;;5071202;28;20377;-75
2021/06/26 07:36:23;;;;;;;23.52;18.48;;;19.80;99.90;;;;;;5071017;28;20084;-75
2021/06/26 07:38:49;;;;;;;22.50;19.73;;;19.90;99.90;;;;;;5071695;28;20020;-74
2021/06/26 07:41:15;;;;;;;26.63;20.08;;;20.00;99.90;;;;;;5071456;28;20021;-74
2021/06/26 07:43:44;;;;;;;21.98;19.20;;;20.10;99.90;;;;;;5085309;28;20020;-75
2021/06/26 07:46:10;;;;;;;24.70;20.10;;;20.20;99.90;;;;;;5070951;28;20074;-74
2021/06/26 07:48:35;;;;;;;27.05;20.33;;;20.20;99.90;;;;;;5071797;28;20017;-75
2021/06/26 07:51:02;;;;;;;23.02;19.42;;;20.30;99.90;;;;;;5070660;28;20043;-74
2021/06/26 07:53:28;;;;;;;28.80;20.63;;;20.30;99.90;;;;;;5075422;28;20025;-76
2021/06/26 07:55:53;;;;;;;24.85;19.90;;;20.50;99.90;;;;;;5085762;28;20036;-75
2021/06/26 07:58:21;;;;;;;24.98;20.48;;;20.60;99.90;;;;;;5091531;28;20020;-74
2021/06/26 08:00:47;;;;;;;22.48;18.52;;;20.60;99.90;;;;;;5082843;28;20028;-74
2021/06/26 08:03:17;;;;;;;21.33;18.60;;;20.70;99.90;;;;;;5080283;28;20085;-72
2021/06/26 08:05:43;;;;;;;25.50;20.20;;;20.70;99.90;;;;;;5085737;28;20040;-75
2021/06/26 08:08:09;;;;;;;23.20;19.63;;;20.70;99.90;;;;;;5080533;28;20012;-74
2021/06/26 08:10:35;;;;;;;23.88;19.85;;;20.90;99.90;;;;;;5080321;28;20024;-81
2021/06/26 08:13:01;;;;;;;24.48;20.30;;;20.90;99.90;;;;;;5074635;28;20115;-81
2021/06/26 08:15:27;;;;;;;25.17;20.30;;;21.00;99.90;;;;;;5073698;28;20158;-81
2021/06/26 08:17:52;;;;;;;26.80;20.30;;;21.00;99.90;;;;;;5090840;28;20031;-81
2021/06/26 08:20:18;;;;;;;25.75;20.00;;;21.10;99.90;;;;;;5093756;28;20039;-75
2021/06/26 08:22:44;;;;;;;39.10;22.23;;;21.00;99.90;;;;;;5093362;28;20028;-74
2021/06/26 08:25:10;;;;;;;36.05;22.20;;;21.00;99.90;;;;;;5092642;28;20115;-76
2021/06/26 08:27:36;;;;;;;25.90;21.23;;;21.00;99.90;;;;;;5093834;28;20122;-76
2021/06/26 08:30:01;;;;;;;28.77;22.98;;;21.10;99.90;;;;;;5080550;28;20038;-74
2021/06/26 08:32:27;;;;;;;25.42;20.77;;;21.10;99.90;;;;;;5074423;28;20360;-74
2021/06/26 08:34:52;;;;;;;28.83;21.15;;;21.10;99.90;;;;;;5074811;28;20041;-74
2021/06/26 08:37:18;;;;;;;24.95;21.25;;;21.20;99.90;;;;;;5074949;28;20028;-74
2021/06/26 08:39:43;;;;;;;26.95;21.70;;;21.30;99.90;;;;;;5084917;28;20429;-74
2021/06/26 08:42:09;;;;;;;26.98;21.65;;;21.40;99.90;;;;;;5075702;28;20024;-68
2021/06/26 08:44:35;;;;;;;27.05;22.75;;;21.60;99.90;;;;;;5079891;28;20048;-73
2021/06/26 08:47:00;;;;;;;26.00;20.63;;;21.70;99.90;;;;;;5079534;28;20460;-73
2021/06/26 08:49:26;;;;;;;25.50;21.15;;;21.90;99.90;;;;;;5079282;28;20031;-74
2021/06/26 08:51:54;;;;;;;32.00;22.00;;;21.90;99.90;;;;;;5082555;28;20024;-74
2021/06/26 08:54:21;;;;;;;30.05;21.10;;;21.90;99.90;;;;;;5073581;28;20044;-71
2021/06/26 08:56:48;;;;;;;31.25;22.88;;;22.00;99.90;;;;;;5074337;28;20123;-74
2021/06/26 08:59:16;;;;;;;30.23;22.05;;;22.20;99.90;;;;;;5073493;28;20037;-71
2021/06/26 09:01:42;;;;;;;32.35;23.63;;;22.20;99.90;;;;;;5074766;28;20093;-71
2021/06/26 09:04:15;;;;;;;30.15;22.60;;;22.20;99.90;;;;;;5073868;28;20134;-71
2021/06/26 09:06:49;;;;;;;25.02;20.92;;;22.20;99.90;;;;;;5073793;28;20111;-73
2021/06/26 09:09:15;;;;;;;26.27;22.25;;;22.30;99.90;;;;;;5086612;28;20028;-72
2021/06/26 09:11:41;;;;;;;26.67;22.45;;;22.40;99.90;;;;;;5075008;28;20111;-72
2021/06/26 09:14:18;;;;;;;28.75;22.63;;;22.40;99.90;;;;;;5086474;28;20024;-72
2021/06/26 09:16:52;;;;;;;28.90;23.27;;;22.50;99.90;;;;;;5087254;28;20444;-72
2021/06/26 09:19:18;;;;;;;28.02;22.70;;;22.70;99.90;;;;;;5086875;28;20028;-73
2021/06/26 09:21:54;;;;;;;28.50;23.02;;;22.80;99.90;;;;;;5080749;28;20354;-72
2021/06/26 09:24:19;;;;;;;29.13;22.40;;;23.00;99.90;;;;;;5080594;28;20024;-73
2021/06/26 09:26:59;;;;;;;30.50;23.95;;;23.20;99.90;;;;;;5081482;28;20023;-73
2021/06/26 09:29:25;;;;;;;33.05;23.48;;;23.40;99.90;;;;;;5082574;28;20093;-73
2021/06/26 09:32:00;;;;;;;28.25;22.65;;;23.40;99.90;;;;;;5078676;28;20087;-72
2021/06/26 09:34:45;;;;;;;28.45;22.90;;;23.40;99.90;;;;;;5072621;28;20027;-72
2021/06/26 09:37:20;;;;;;;30.60;24.70;;;23.30;99.90;;;;;;5073087;28;20412;-72
2021/06/26 09:39:46;;;;;;;33.72;25.42;;;23.30;99.90;;;;;;5073742;28;20033;-73
2021/06/26 09:42:19;;;;;;;29.40;25.08;;;23.30;99.90;;;;;;5072455;28;20468;-72
2021/06/26 09:44:59;;;;;;;30.33;24.25;;;23.40;99.90;;;;;;5073550;28;20435;-72
2021/06/26 09:47:36;;;;;;;27.70;23.17;;;23.50;99.90;;;;;;5073633;28;20151;-72
2021/06/26 09:50:25;;;;;;;29.00;24.75;;;23.50;99.90;;;;;;5072700;28;20108;-72
2021/06/26 09:53:03;;;;;;;31.80;24.30;;;23.50;99.90;;;;;;5073356;28;20020;-73
2021/06/26 09:55:32;;;;;;;26.70;23.73;;;23.60;99.90;;;;;;5072870;28;20036;-73
2021/06/26 09:58:09;;;;;;;26.52;23.55;;;23.70;99.90;;;;;;5073341;28;20020;-73
2021/06/26 10:00:36;;;;;;;31.92;23.95;;;23.90;99.90;;;;;;5073091;28;20503;-73
2021/06/26 10:03:01;;;;;;;30.48;23.90;;;24.10;99.90;;;;;;5071768;28;20033;-71
2021/06/26 10:05:28;;;;;;;26.08;23.00;;;24.10;99.90;;;;;;5078698;28;20467;-73
2021/06/26 10:07:56;;;;;;;31.13;24.50;;;24.10;99.90;;;;;;5083553;28;20106;-73
2021/06/26 10:10:23;;;;;;;30.23;23.80;;;24.00;99.90;;;;;;5079016;28;20082;-72
2021/06/26 10:12:53;;;;;;;31.65;24.52;;;24.00;99.90;;;;;;5072978;28;20094;-73
2021/06/26 10:15:20;;;;;;;29.20;21.35;;;24.00;99.90;;;;;;5073128;28;20021;-74
2021/06/26 10:17:46;;;;;;;32.58;23.30;;;24.00;99.90;;;;;;5073863;28;20039;-73
2021/06/26 10:20:15;;;;;;;31.15;23.30;;;24.00;99.90;;;;;;5072681;28;20028;-70
2021/06/26 10:22:43;;;;;;;27.20;23.27;;;23.90;99.90;;;;;;5072765;28;20013;-72
2021/06/26 10:25:13;;;;;;;30.83;22.67;;;23.90;99.90;;;;;;5071945;28;20029;-73
2021/06/26 10:27:39;;;;;;;27.88;22.23;;;24.00;99.90;;;;;;5072915;28;20016;-72
2021/06/26 10:30:22;;;;;;;29.98;21.92;;;24.20;99.90;;;;;;5086510;28;20072;-73
2021/06/26 10:32:53;;;;;;;25.42;21.98;;;24.30;99.90;;;;;;5074562;28;20027;-73
2021/06/26 10:35:20;;;;;;;31.42;21.20;;;24.50;99.90;;;;;;5085001;28;20123;-73
2021/06/26 10:37:46;;;;;;;25.23;20.80;;;24.70;99.90;;;;;;5082000;28;20032;-72
2021/06/26 10:40:12;;;;;;;23.30;20.60;;;24.80;99.90;;;;;;5086560;28;20545;-73
2021/06/26 10:42:39;;;;;;;25.75;20.52;;;25.00;99.90;;;;;;5080656;28;20470;-72
2021/06/26 10:45:07;;;;;;;24.75;18.98;;;25.10;99.90;;;;;;5077527;28;20066;-72
2021/06/26 10:47:35;;;;;;;25.50;20.08;;;25.20;99.90;;;;;;5081979;28;20134;-73
2021/06/26 10:50:17;;;;;;;21.25;18.80;;;25.20;99.90;;;;;;5082244;28;20375;-72
2021/06/26 10:52:49;;;;;;;21.98;19.48;;;25.10;99.90;;;;;;5086402;28;20021;-72
2021/06/26 10:55:32;;;;;;;22.33;19.92;;;25.00;99.90;;;;;;5074139;28;20366;-72
2021/06/26 10:57:59;;;;;;;29.65;21.08;;;25.20;99.90;;;;;;5078227;28;20464;-72
2021/06/26 11:00:36;;;;;;;25.10;20.75;;;25.20;99.70;;;;;;5086535;28;20081;-72
2021/06/26 11:03:03;;;;;;;28.88;21.73;;;25.20;99.70;;;;;;5081211;28;20535;-72
2021/06/26 11:05:35;;;;;;;23.38;20.88;;;25.20;99.70;;;;;;5087050;28;20055;-71
2021/06/26 11:08:12;;;;;;;24.85;19.48;;;25.20;99.70;;;;;;5081737;28;20025;-71
2021/06/26 11:10:37;;;;;;;24.25;19.73;;;25.30;99.30;;;;;;5079006;28;20413;-72
2021/06/26 11:13:03;;;;;;;24.65;19.38;;;25.40;99.20;;;;;;5082020;28;20020;-72
2021/06/26 11:15:31;;;;;;;21.10;18.80;;;25.40;98.80;;;;;;5087295;28;20426;-72
2021/06/26 11:17:58;;;;;;;21.48;19.02;;;25.60;99.00;;;;;;5086025;28;20023;-71
2021/06/26 11:20:24;;;;;;;22.50;18.08;;;25.80;98.80;;;;;;5083531;28;20020;-71
2021/06/26 11:22:56;;;;;;;22.25;17.30;;;25.80;98.30;;;;;;5085719;28;20117;-71
2021/06/26 11:25:26;;;;;;;24.05;19.17;;;25.90;98.10;;;;;;5085809;28;20054;-70
2021/06/26 11:28:06;;;;;;;22.38;19.65;;;25.90;97.70;;;;;;5090220;28;20028;-71
2021/06/26 11:30:32;;;;;;;20.02;17.92;;;25.80;97.20;;;;;;5088340;28;20042;-71
2021/06/26 11:32:58;;;;;;;21.23;18.92;;;25.80;97.30;;;;;;5088211;28;20020;-72
2021/06/26 11:35:32;;;;;;;22.58;18.88;;;25.70;97.20;;;;;;5086131;28;20066;-71
2021/06/26 11:37:58;;;;;;;23.10;19.23;;;25.70;97.40;;;;;;5089116;28;20043;-71
2021/06/26 11:40:26;;;;;;;22.38;19.02;;;25.70;97.40;;;;;;5090694;28;20131;-70
2021/06/26 11:42:55;;;;;;;19.65;17.58;;;25.60;97.00;;;;;;5090619;28;20031;-71
2021/06/26 11:45:32;;;;;;;26.30;18.63;;;25.50;97.00;;;;;;5085197;28;20045;-71
2021/06/26 11:48:02;;;;;;;24.00;18.52;;;25.60;97.30;;;;;;5070318;28;20028;-71
2021/06/26 11:50:28;;;;;;;22.50;19.85;;;25.60;97.20;;;;;;5054773;28;20028;-71
2021/06/26 11:53:08;;;;;;;23.00;18.45;;;25.60;97.00;;;;;;5081627;28;20472;-72
2021/06/26 11:56:04;;;;;;;20.77;17.88;;;25.70;96.50;;;;;;5089604;28;20127;-72
2021/06/26 11:58:52;;;;;;;20.67;17.58;;;25.80;96.70;;;;;;5089893;28;20460;-71
2021/06/26 12:01:24;;;;;;;18.88;16.90;;;25.90;96.70;;;;;;5091007;28;20040;-72
2021/06/26 12:03:50;;;;;;;22.52;18.25;;;26.00;96.20;;;;;;5089495;28;20028;-71
2021/06/26 12:06:16;;;;;;;21.92;19.35;;;26.10;95.90;;;;;;5090553;28;20028;-72
2021/06/26 12:08:53;;;;;;;25.60;18.52;;;26.00;95.40;;;;;;5075701;28;20039;-72
2021/06/26 12:11:28;;;;;;;23.00;19.27;;;26.00;95.60;;;;;;5078848;28;20051;-72
2021/06/26 12:13:56;;;;;;;21.92;19.48;;;26.10;95.50;;;;;;5090145;28;20022;-71
2021/06/26 12:16:31;;;;;;;20.48;18.48;;;26.30;95.50;;;;;;5086607;28;20051;-72
2021/06/26 12:18:59;;;;;;;22.98;17.77;;;26.50;95.10;;;;;;5089634;28;20034;-71
2021/06/26 12:21:39;;;;;;;21.05;18.27;;;26.60;94.30;;;;;;5084989;28;20020;-72
2021/06/26 12:24:05;;;;;;;20.88;17.50;;;26.60;94.40;;;;;;5078497;28;20112;-72
2021/06/26 12:26:31;;;;;;;15.88;14.27;;;26.60;94.50;;;;;;5090429;28;20119;-72
2021/06/26 12:28:57;;;;;;;16.02;14.27;;;26.40;93.80;;;;;;5089899;28;20103;-71